Coleman, TX

9:37 PM CDT on September 22, 2017 (GMT -0500)
Coleman Municipal

Weather History for KCOM - December, 2013

Change the Weather History Date:

Thursday, December 19, 2013

  Actual Average (KABI) Record (KABI)
Temperature  
Mean Temperature 60 °F -  
Max Temperature 70 °F 54 °F 80 °F (1978)
Min Temperature 49 °F 30 °F 5 °F (1924)
Degree Days  
Heating Degree Days 6    
Growing Degree Days 10 (Base 50)    
Moisture  
Dew Point 50 °F    
Average Humidity 73    
Maximum Humidity 90    
Minimum Humidity 51    
Precipitation  
Precipitation 0.00 in - - ()
Sea Level Pressure  
Sea Level Pressure 29.84 in    
Wind  
Wind Speed 12 mph (South)    
Max Wind Speed 24 mph    
Max Gust Speed 31 mph    
Visibility 10 miles    
Events      
Averages and records for this station are not official NWS values.
T = Trace of Precipitation, MM = Missing Value Source: NWS Daily Summary

Daily Weather History Graph

Daily Weather History Graph

Search for Another Location

Airport or City:

Trip Planner

Search our weather history database for the weather conditions in past years. The results will help you decide how hot, cold, wet, or windy it might be!

Date:

Astronomy

Dec. 19, 2013 Rise Set
Actual Time 7:32 AM CST 5:37 PM CST
Civil Twilight 7:05 AM CST 6:04 PM CST
Nautical Twilight 6:35 AM CST 6:34 PM CST
Astronomical Twilight 6:05 AM CST 7:04 PM CST
Moon 7:56 PM CST (12/19) 8:59 AM CST (12/19)
Length of Visible Light 10h 58m
Length of Day
10h 04m
Waning Gibbous, 95% of the Moon is Illuminated
Dec 19
Waning Gibbous
Dec 25
Last Quarter
Jan 1
New
Jan 7
First Quarter
Jan 15
Full

Hourly Weather History & Observations

Time (CST) Temp. Dew Point Humidity Pressure Visibility Wind Dir Wind Speed Gust Speed Precip Events Conditions
12:15 AM 49.8 °F 43.7 °F 79% 29.97 in 10.0 mi South 9.2 mph - N/A   Clear
12:35 AM 50.2 °F 44.1 °F 79% 29.96 in 10.0 mi South 12.7 mph - N/A   Clear
12:55 AM 50.5 °F 44.4 °F 80% 29.95 in 10.0 mi South 13.8 mph - N/A   Clear
1:15 AM 50.5 °F 44.6 °F 80% 29.94 in 10.0 mi South 12.7 mph - N/A   Clear
1:35 AM 50.7 °F 44.8 °F 80% 29.94 in 10.0 mi South 11.5 mph - N/A   Clear
1:55 AM 50.4 °F 44.8 °F 81% 29.95 in 10.0 mi South 8.1 mph - N/A   Clear
2:15 AM 50.9 °F 45.5 °F 82% 29.94 in 10.0 mi South 10.4 mph - N/A   Clear
2:35 AM 51.1 °F 45.9 °F 82% 29.94 in 10.0 mi South 8.1 mph - N/A   Clear
2:55 AM 50.9 °F 46.0 °F 83% 29.93 in 10.0 mi South 8.1 mph - N/A   Clear
3:15 AM 50.4 °F 46.4 °F 86% 29.92 in 10.0 mi South 8.1 mph - N/A   Clear
3:35 AM 50.9 °F 47.1 °F 87% 29.91 in 10.0 mi South 9.2 mph - N/A   Clear
3:55 AM 51.3 °F 47.7 °F 87% 29.91 in 10.0 mi South 9.2 mph - N/A   Scattered Clouds
4:15 AM 51.8 °F 48.2 °F 88% 29.90 in 10.0 mi South 10.4 mph - N/A   Overcast
4:35 AM 52.9 °F 49.1 °F 87% 29.89 in 10.0 mi South 12.7 mph - N/A   Overcast
4:55 AM 53.6 °F 49.5 °F 86% 29.88 in 10.0 mi South 11.5 mph 16.1 mph N/A   Overcast
5:15 AM 53.8 °F 50.0 °F 87% 29.88 in 10.0 mi South 11.5 mph - N/A   Overcast
5:35 AM 54.5 °F 50.0 °F 85% 29.88 in 10.0 mi SSW 6.9 mph - N/A   Overcast
5:55 AM 55.2 °F 50.4 °F 84% 29.87 in 10.0 mi South 6.9 mph - N/A   Overcast
6:15 AM 55.6 °F 50.9 °F 84% 29.87 in 10.0 mi SSW 8.1 mph - N/A   Overcast
6:35 AM 56.3 °F 50.9 °F 82% 29.87 in 10.0 mi South 9.2 mph - N/A   Overcast
6:55 AM 56.8 °F 50.9 °F 80% 29.88 in 10.0 mi SSW 10.4 mph - N/A   Overcast
7:15 AM 57.2 °F 51.1 °F 80% 29.88 in 10.0 mi SSW 9.2 mph - N/A   Overcast
7:35 AM 57.6 °F 51.1 °F 79% 29.88 in 10.0 mi SSW 12.7 mph - N/A   Overcast
7:55 AM 57.7 °F 51.1 °F 78% 29.88 in 10.0 mi SSW 13.8 mph - N/A   Overcast
8:15 AM 58.1 °F 51.3 °F 78% 29.88 in 10.0 mi SSW 16.1 mph 20.7 mph N/A   Overcast
8:35 AM 58.6 °F 51.3 °F 76% 29.88 in 10.0 mi SSW 15.0 mph 20.7 mph N/A   Overcast
8:55 AM 59.4 °F 51.3 °F 75% 29.88 in 10.0 mi SSW 19.6 mph 27.6 mph N/A   Overcast
9:15 AM 59.9 °F 51.1 °F 73% 29.88 in 10.0 mi SSW 21.9 mph 31.1 mph N/A   Overcast
9:35 AM 60.4 °F 51.3 °F 72% 29.89 in 10.0 mi SSW 21.9 mph 28.8 mph N/A   Overcast
9:55 AM 61.2 °F 51.4 °F 70% 29.89 in 10.0 mi SSW 23.0 mph 28.8 mph N/A   Overcast
10:15 AM 63.1 °F 51.8 °F 66% 29.89 in 10.0 mi SSW 21.9 mph 29.9 mph N/A   Overcast
10:35 AM 62.8 °F 51.4 °F 66% 29.89 in 10.0 mi SSW 24.2 mph 31.1 mph N/A   Scattered Clouds
10:55 AM 64.0 °F 51.4 °F 64% 29.89 in 10.0 mi SSW 23.0 mph 29.9 mph N/A   Clear
11:15 AM 65.7 °F 51.4 °F 60% 29.88 in 10.0 mi SSW 20.7 mph 29.9 mph N/A   Clear
11:35 AM 66.6 °F 51.4 °F 58% 29.88 in 10.0 mi SSW 20.7 mph 26.5 mph N/A   Clear
11:55 AM 66.9 °F 51.1 °F 57% 29.86 in 10.0 mi South 23.0 mph 27.6 mph N/A   Clear
12:15 PM 67.5 °F 51.6 °F 57% 29.84 in 10.0 mi South 19.6 mph 26.5 mph N/A   Clear
12:35 PM 68.5 °F 51.4 °F 54% 29.83 in 10.0 mi SSW 18.4 mph 28.8 mph N/A   Clear
12:55 PM 69.1 °F 51.4 °F 53% 29.81 in 10.0 mi SSW 19.6 mph 24.2 mph N/A   Clear
1:15 PM 69.1 °F 51.3 °F 53% 29.81 in 10.0 mi SSW 13.8 mph 24.2 mph N/A   Clear
1:35 PM 69.3 °F 50.9 °F 52% 29.80 in 10.0 mi SSW 18.4 mph 26.5 mph N/A   Clear
1:55 PM 69.6 °F 51.1 °F 52% 29.79 in 10.0 mi South 13.8 mph 25.3 mph N/A   Clear
2:15 PM 70.2 °F 51.1 °F 51% 29.78 in 10.0 mi South 19.6 mph 25.3 mph N/A   Clear
2:35 PM 69.6 °F 50.5 °F 51% 29.78 in 10.0 mi SSW 16.1 mph 24.2 mph N/A   Clear
2:55 PM 68.9 °F 50.5 °F 52% 29.77 in 10.0 mi South 11.5 mph - N/A   Clear
3:15 PM 69.1 °F 50.9 °F 52% 29.77 in 10.0 mi South 12.7 mph 18.4 mph N/A   Clear
3:35 PM 69.3 °F 50.9 °F 52% 29.76 in 10.0 mi South 18.4 mph - N/A   Clear
3:55 PM 68.2 °F 50.7 °F 54% 29.77 in 10.0 mi South 15.0 mph - N/A   Clear
4:15 PM 67.5 °F 50.7 °F 55% 29.77 in 10.0 mi South 16.1 mph 23.0 mph N/A   Clear
4:35 PM 67.1 °F 50.9 °F 56% 29.76 in 10.0 mi South 15.0 mph 23.0 mph N/A   Clear
4:55 PM 67.6 °F 50.7 °F 55% 29.76 in 10.0 mi South 16.1 mph - N/A   Clear
5:15 PM 66.7 °F 50.9 °F 57% 29.77 in 10.0 mi South 17.3 mph 21.9 mph N/A   Clear
5:35 PM 64.6 °F 51.1 °F 62% 29.77 in 10.0 mi South 13.8 mph - N/A   Clear
5:55 PM 63.1 °F 50.9 °F 64% 29.77 in 10.0 mi South 13.8 mph 18.4 mph N/A   Clear
6:15 PM 62.6 °F 50.7 °F 65% 29.77 in 10.0 mi South 12.7 mph - N/A   Clear
6:35 PM 61.3 °F 50.9 °F 69% 29.78 in 10.0 mi South 12.7 mph - N/A   Clear
6:55 PM 60.4 °F 51.1 °F 71% 29.77 in 10.0 mi South 16.1 mph - N/A   Clear
7:15 PM 59.5 °F 51.3 °F 74% 29.78 in 10.0 mi South 17.3 mph - N/A   Clear
7:35 PM 59.0 °F 51.1 °F 75% 29.78 in 10.0 mi South 13.8 mph - N/A   Clear
7:55 PM 58.3 °F 50.9 °F 76% 29.78 in 10.0 mi South 12.7 mph 20.7 mph N/A   Clear
8:15 PM 57.2 °F 50.9 °F 79% 29.79 in 10.0 mi SSW 11.5 mph - N/A   Clear
8:35 PM 56.5 °F 50.4 °F 80% 29.79 in 10.0 mi South 9.2 mph - N/A   Clear
8:55 PM 55.0 °F 50.0 °F 83% 29.79 in 10.0 mi South 9.2 mph - N/A   Clear
9:15 PM 54.5 °F 49.6 °F 84% 29.79 in 10.0 mi South 8.1 mph - N/A   Clear
9:35 PM 52.9 °F 49.1 °F 87% 29.79 in 10.0 mi South 5.8 mph - N/A   Clear
9:55 PM 52.2 °F 49.1 °F 89% 29.79 in 10.0 mi South 5.8 mph - N/A   Clear
10:15 PM 52.9 °F 49.6 °F 89% 29.78 in 10.0 mi South 6.9 mph - N/A   Clear
10:35 PM 52.7 °F 49.1 °F 88% 29.78 in 10.0 mi South 5.8 mph - N/A   Clear
10:55 PM 52.5 °F 49.6 °F 90% 29.78 in 10.0 mi South 5.8 mph - N/A   Clear
11:15 PM 55.2 °F 50.9 °F 85% 29.78 in 10.0 mi South 8.1 mph - N/A   Clear
11:35 PM 54.5 °F 50.5 °F 86% 29.78 in 10.0 mi Calm Calm - N/A   Clear
11:55 PM 52.9 °F 49.6 °F 89% 29.77 in 10.0 mi Calm Calm - N/A   Clear